Irvington, NY

3:02 PM EDT on August 21, 2014 (GMT -0400)
Central Park | Change Station
CLOSE
Current Station
Airport
Location: Central Park,
Elevation: 154 ft
Nearby Weather Stations

Elev 154 ft 40.78 °N, 73.97 °W | Updated 11 minutes ago

Mostly Cloudy
Mostly Cloudy
78 °F
Feels Like 78 °F
N
6
Wind Variable Wind from Variable

Today
High -- | Low -- °F
--% Chance of Precip.
Yesterday
High -- | Low -- °F
Precip. -- in
6:11 AM 7:45 PM
Waning Crescent, 13% visible
Pressure 30.04 in
Visibility 10.0 miles
Clouds Mostly Cloudy 6500 ft
Mostly Cloudy 9000 ft
Dew Point 61 °F
Humidity 56%
Rainfall 0.04 in
Snow Depth Not available.
UV 4 out of 12
Pollen 8.70 out of 12
PM2.5 Good
Flu Activity Not available.
METAR KNYC 211851Z AUTO VRB05KT 10SM BKN065 BKN090 26/16 A3006 RMK AO2 SLP170 T02560161 $

More Conditions Fewer Conditions

Pressure 30.04 in
Visibility 10.0 miles
Clouds Mostly Cloudy 6500 ft
Mostly Cloudy 9000 ft
Dew Point 61 °F
Humidity 56%
Rainfall 0.04 in
Snow Depth Not available.
UV 4 out of 12
Pollen 8.70 out of 12
PM2.5 Good
Flu Activity Not available.
METAR KNYC 211851Z AUTO VRB05KT 10SM BKN065 BKN090 26/16 A3006 RMK AO2 SLP170 T02560161 $

More Conditions Fewer Conditions

10-Day Weather Forecast

Almanac

Astronomy

Aug. 21, 2014 Rise Set
Actual Time 6:11 AM EDT 7:45 PM EDT
Civil Twilight 5:42 AM EDT 8:14 PM EDT
Nautical Twilight 5:06 AM EDT 8:49 PM EDT
Astronomical Twilight 4:29 AM EDT 9:26 PM EDT
Moon 2:38 AM EDT 5:12 PM EDT
Length of Visible Light 14h 32m
Length of Day
13h 34m
Tomorrow will be 2m 29s shorter.
Waning Crescent, 13% of the Moon is Illuminated
Today
Waning Crescent
Aug 25
New
Sep 2
First Quarter
Sep 8
Full
Sep 15
Last Quarter

Today's Extremes

State Highs State Lows

Community

WunderPhotos

Upload Photos

1,746,002 photos uploaded!

WunderBlogs® & News

Nearby

Air Quality

  Air Quality AQ Index Pollutant
Yesterday Moderate
OZONE
Yesterday Good
PM2.5
Current Good
PM2.5
Thursday Good
PM2.5
Thursday Good
OZONE
Friday Good
PM2.5
Friday Good
OZONE

Snow Depth

Station Depth Elevation
No new snow has been reported.

Earthquake Activity

City Distance Mag. Time & Date
No recent earthquake activity has been reported nearby.
Minimum magnitude displayed is 2.5.

Coastal Water Temperatures

Place Temperature
Kings Point, NY 73.9 °F
Bridgeport, CT 73.9 °F

Nearby Weather Stations